• Join FlightAware (Why Join?)
  • Login
  • US Flag 
06:28PM EST


 

Airport Tracker/Info


-or-


 

Live Flight TrackerFlight Track Log ✈ N36JZ ✈ 27-Jul-2014 ✈ KFOK - KCDW

Flight Track Log - Related Links

Times and Time Zones

All times are in EDT time to prevent confusion due to time zone crossing. See the N36JZ flight status page for this flight to view local times or setup timezone preferences in your user account.

Time Position Orientation Groundspeed Altitude Reporting Facility
EDT Latitude Longitude Course Direction KTS MPH feet Rate Location/Type
06:38PM 40.8373 -72.6375 223° Southwest 84 97 600  Level FlightAware ADS-B (KSNC)
06:39PM 40.8314 -72.6448 230° Southwest 89 102 800 720 Climbing FlightAware ADS-B (KSNC)
06:39PM 40.8358 -72.6620 310° West 118 136 1,200 720 Climbing FlightAware ADS-B (KSNC)
06:40PM 40.8447 -72.6760 310° West 121 139 1,500 720 Climbing FlightAware ADS-B (KSNC)
06:40PM 40.8547 -72.6935 302° West 121 139 1,800 660 Climbing FlightAware ADS-B (KSNC)
06:41PM 40.8631 -72.7126 298° West 120 138 2,200 660 Climbing FlightAware ADS-B (KSNC)
06:41PM 40.8696 -72.7314 292° West 117 135 2,500 600 Climbing FlightAware ADS-B (KSNC)
06:41PM 40.8737 -72.7457 291° West 117 135 2,700 240 Climbing FlightAware ADS-B (KSNC)
06:42PM 40.8777 -72.7598 290° West 129 148 2,700  Level FlightAware ADS-B (KSNC)
06:42PM 40.8821 -72.7759 290° West 135 155 2,700  Level FlightAware ADS-B (KSNC)
06:43PM 40.8929 -72.8164 282° West 138 159 2,700  Level FlightAware ADS-B (KSNC)
06:43PM 40.8958 -72.8351 282° West 138 159 2,700  Level FlightAware ADS-B (KSNC)
06:44PM 40.8979 -72.8517 275° West 137 158 2,700  Level FlightAware ADS-B (KSNC)
06:44PM 40.8996 -72.8688 278° West 138 159 2,700  Level FlightAware ADS-B (KSNC)
06:44PM 40.9015 -72.8855 278° West 138 159 2,700  Level FlightAware ADS-B (KSNC)
06:45PM 40.9032 -72.9013 278° West 137 158 2,700  Level FlightAware ADS-B (KSNC)
06:45PM 40.9050 -72.9186 278° West 138 159 2,700  Level FlightAware ADS-B (KSNC)
06:45PM 40.9068 -72.9357 278° West 141 162 2,700  Level FlightAware ADS-B (KSNC)
06:46PM 40.9090 -72.9565 278° West 142 163 2,700  Level FlightAware ADS-B (KSNC)
06:46PM 40.9112 -72.9786 278° West 142 163 2,700  Level FlightAware ADS-B (KSNC)
06:47PM 40.9143 -73.0088 278° West 142 163 2,700  Level FlightAware ADS-B (KSNC)
06:47PM 40.9164 -73.0294 278° West 142 163 2,700  Level FlightAware ADS-B (KSNC)
06:48PM 40.9182 -73.0472 278° West 142 163 2,700  Level FlightAware ADS-B (KSNC)
06:48PM 40.9189 -73.0541 278° West 141 162 2,700  Level FlightAware ADS-B (KSNC)
06:49PM 40.9242 -73.1061 278° West 142 163 2,700  Level FlightAware ADS-B (KSNC)
06:49PM 40.9269 -73.1323 277° West 141 162 2,700  Level FlightAware ADS-B (KSNC)
06:50PM 40.9296 -73.1595 278° West 142 163 2,700  Level FlightAware ADS-B (KSNC)
06:50PM 40.9313 -73.1758 278° West 142 163 2,700  Level FlightAware ADS-B (KSNC)
06:50PM 40.9329 -73.1923 278° West 142 163 2,700  Level FlightAware ADS-B (KSNC)
06:51PM 40.9339 -73.2330 270° West 141 162 2,700 -240 Level FlightAware ADS-B (KSNC)
06:51PM 40.9333 -73.2333 264° West 142 163 2,500 -240 Descending New York TRACON
06:52PM 40.9333 -73.2833 270° West 143 165 2,500 60 Level New York TRACON
06:54PM 40.9452 -73.3927 276° West 142 163 2,700  Climbing FlightAware ADS-B (KSNC)
06:55PM 40.9249 -73.4064 266° West  Level Estimated
06:57PM 40.9363 -73.5109 264° West  Level Estimated
06:58PM 40.9482 -73.5828 268° West 143 165 2,700  Level FlightAware ADS-B (KSNC)
07:00PM 40.9667 -73.7000 268° West 149 171 2,500 -60 Descending New York TRACON
07:03PM 41.0000 -73.8500 258° West 151 174 2,500  Level New York TRACON
07:06PM 40.9833 -74.0167 249° West 139 160 2,600  Climbing New York TRACON
07:07PM 40.9667 -74.0667 246° West 136 157 2,600 -180 Level New York TRACON
07:09PM 40.9667 -74.1667 294° West 137 158 2,100 -240 Descending New York TRACON
07:11PM 40.9500 -74.2500 255° West 122 140 1,700 -240 Descending New York TRACON
07:12PM 40.8845 -74.2496 249° West  Level Estimated
07:15PM 40.9880 -74.2975 317° Northwest  Level FlightAware Approximate
07:22PM 40.9396 -74.3677 131° Southeast  Level FlightAware Approximate
07:23PM 40.9123 -74.3276 135° Southeast  Level FlightAware Approximate
07:24PM 40.8836 -74.2893 135° Southeast  Level FlightAware Approximate
07:25PM 40.8752 -74.2814 135° Southeast  Level Estimated
07:26PM 40.8752 -74.2814 135° Southeast  Level Estimated
07:27PM 40.8752 -74.2814 128° Southeast  Level Estimated
07:28PM 40.8752 -74.2814 135° Southeast  Level Estimated
07:29PM 40.8752 -74.2814 128° Southeast  Level Estimated
07:30PM 40.8752 -74.2814 135° Southeast  Level Estimated
07:31PM 40.8752 -74.2814 128° Southeast  Level Estimated
07:32PM 40.8752 -74.2814 135° Southeast  Level Estimated
07:33PM 40.8752 -74.2814 128° Southeast  Level Estimated
07:34PM 40.8752 -74.2814 135° Southeast  Level Estimated
07:35PM 40.8752 -74.2814 128° Southeast  Level Estimated
07:36PM 40.8752 -74.2814 135° Southeast  Level Estimated
07:37PM 40.8752 -74.2814 128° Southeast  Level Estimated
07:38PM 40.8752 -74.2814 135° Southeast  Level Estimated
07:39PM 40.8752 -74.2814 128° Southeast  Level Estimated